Time;durP1;ratioP1;P1;durP2;ratioP2;P2;SDS_P1;SDS_P2;PMS_P1;PMS_P2;Temp;Humidity;BMP_temperature;BMP_pressure;BME280_temperature;BME280_humidity;BME280_pressure;Samples;Min_cycle;Max_cycle;Signal;HPM_P1;HPM_P2
2022/07/15 00:00:13;;;;;;;5.00;1.77;;;;;;;28.45;34.95;99174.81;4496280;31;35256;-62
2022/07/15 00:02:41;;;;;;;3.50;1.70;;;;;;;28.20;35.41;99203.44;4497292;31;34361;-62
2022/07/15 00:05:09;;;;;;;7.05;1.80;;;;;;;28.30;34.99;99217.38;4495212;31;33420;-62
2022/07/15 00:07:37;;;;;;;6.03;1.42;;;;;;;28.29;35.15;99214.91;4497081;31;34095;-62
2022/07/15 00:10:14;;;;;;;3.90;1.80;;;;;;;28.25;35.29;99181.53;4488149;31;32669;-61
2022/07/15 00:12:44;;;;;;;3.55;1.70;;;;;;;28.11;35.59;99174.62;4494239;31;35097;-62
2022/07/15 00:15:12;;;;;;;3.85;1.90;;;;;;;28.17;35.30;99172.81;4490252;31;35436;-62
2022/07/15 00:17:41;;;;;;;4.07;2.05;;;;;;;27.91;36.33;99187.94;4496639;31;33893;-62
2022/07/15 00:20:10;;;;;;;4.57;2.05;;;;;;;28.05;35.93;99187.41;4481050;31;32311;-62
2022/07/15 00:22:38;;;;;;;3.83;1.80;;;;;;;27.86;36.33;99195.00;4493689;31;32377;-62
2022/07/15 00:25:06;;;;;;;3.05;1.60;;;;;;;28.17;35.70;99187.41;4497432;31;34466;-62
2022/07/15 00:27:34;;;;;;;4.10;2.00;;;;;;;28.25;35.63;99177.91;4493933;31;33018;-62
2022/07/15 00:30:04;;;;;;;4.62;1.75;;;;;;;28.21;35.55;99172.06;4490630;31;34818;-62
2022/07/15 00:32:31;;;;;;;4.57;1.95;;;;;;;28.14;35.94;99154.03;4493536;31;33590;-62
2022/07/15 00:34:59;;;;;;;5.72;1.60;;;;;;;28.28;35.64;99147.16;4488879;31;33735;-62
2022/07/15 00:37:27;;;;;;;7.00;1.73;;;;;;;28.21;35.86;99143.72;4496272;31;33932;-62
2022/07/15 00:39:54;;;;;;;3.83;1.85;;;;;;;28.18;35.86;99138.72;4481565;32;35127;-61
2022/07/15 00:45:15;;;;;;;4.43;1.83;;;;;;;28.20;35.96;99150.31;4491811;31;34461;-62
2022/07/15 00:47:48;;;;;;;5.95;2.03;;;;;;;28.29;35.85;99121.34;4492164;31;32378;-62
2022/07/15 00:50:17;;;;;;;4.12;1.65;;;;;;;28.24;36.12;99123.97;4493029;31;33418;-62
2022/07/15 00:52:49;;;;;;;4.65;1.73;;;;;;;28.31;35.88;99124.66;4498207;31;33272;-62
2022/07/15 00:55:18;;;;;;;4.03;1.98;;;;;;;28.21;36.15;99124.47;4495255;31;33384;-61
2022/07/15 00:57:47;;;;;;;5.18;1.85;;;;;;;28.09;36.29;99128.09;4499626;31;35013;-61
2022/07/15 01:00:16;;;;;;;3.80;1.87;;;;;;;28.08;36.34;99120.09;4498689;31;32943;-62
2022/07/15 01:02:49;;;;;;;2.53;1.65;;;;;;;28.04;36.54;99136.25;4493896;31;33855;-61
2022/07/15 01:05:19;;;;;;;3.78;1.80;;;;;;;28.15;36.35;99137.28;4498089;31;32757;-62
2022/07/15 01:07:49;;;;;;;5.35;2.28;;;;;;;28.11;36.53;99158.12;4499575;31;35008;-61
2022/07/15 01:10:22;;;;;;;4.12;2.55;;;;;;;28.07;36.62;99163.25;4498096;31;34082;-61
2022/07/15 01:12:50;;;;;;;4.65;1.77;;;;;;;27.97;36.78;99173.22;4496037;31;32637;-62
2022/07/15 01:15:20;;;;;;;4.07;2.00;;;;;;;28.08;36.54;99167.69;4497604;31;33397;-64
2022/07/15 01:17:47;;;;;;;4.85;2.20;;;;;;;27.88;36.87;99172.75;4486703;31;33723;-63
2022/07/15 01:20:16;;;;;;;5.75;1.85;;;;;;;28.02;36.61;99182.41;4494173;31;32180;-64
2022/07/15 01:22:47;;;;;;;5.70;2.25;;;;;;;27.80;37.06;99184.09;4497413;31;34109;-64
2022/07/15 01:25:15;;;;;;;4.78;1.90;;;;;;;27.86;37.01;99191.38;4499360;31;34566;-64
2022/07/15 01:27:43;;;;;;;5.10;2.47;;;;;;;27.49;37.80;99197.12;4497535;31;33899;-63
2022/07/15 01:30:12;;;;;;;6.93;2.10;;;;;;;27.54;37.88;99205.47;4497777;31;35810;-63
2022/07/15 01:32:40;;;;;;;5.20;2.22;;;;;;;27.23;38.67;99198.41;4497889;31;33763;-65
2022/07/15 01:35:08;;;;;;;4.43;2.20;;;;;;;27.24;38.85;99199.25;4497813;31;33531;-63
2022/07/15 01:37:37;;;;;;;5.47;2.33;;;;;;;26.99;39.58;99193.91;4497637;31;34830;-63
2022/07/15 01:40:07;;;;;;;3.05;1.92;;;;;;;26.88;39.95;99196.38;4499429;31;34555;-65
2022/07/15 01:42:35;;;;;;;8.57;2.37;;;;;;;27.26;39.29;99186.13;4494331;31;33493;-63
2022/07/15 01:45:04;;;;;;;5.10;2.60;;;;;;;27.54;38.87;99185.41;4495126;31;33205;-64
2022/07/15 01:47:32;;;;;;;4.82;2.50;;;;;;;27.56;38.93;99186.84;4498000;31;33582;-63
2022/07/15 01:50:00;;;;;;;4.72;2.33;;;;;;;27.51;39.08;99188.62;4499269;31;33114;-63
2022/07/15 01:52:29;;;;;;;5.05;2.40;;;;;;;26.95;40.31;99188.88;4498947;31;34232;-63
2022/07/15 01:54:57;;;;;;;6.53;2.00;;;;;;;26.87;40.42;99186.47;4499493;31;33986;-64
2022/07/15 01:57:25;;;;;;;5.80;2.20;;;;;;;27.27;39.54;99185.03;4500766;31;33732;-64
2022/07/15 01:59:52;;;;;;;5.80;2.40;;;;;;;27.26;39.59;99184.19;4501541;31;34238;-63
2022/07/15 02:02:20;;;;;;;5.53;2.25;;;;;;;27.32;39.52;99207.13;4498060;31;34034;-63
2022/07/15 02:04:49;;;;;;;3.72;2.03;;;;;;;27.13;39.92;99215.47;4495027;31;33699;-64
2022/07/15 02:07:18;;;;;;;6.50;2.90;;;;;;;26.94;40.44;99198.19;4485048;32;34887;-63
2022/07/15 02:09:46;;;;;;;6.40;3.28;;;;;;;27.14;40.05;99181.44;4486481;31;35200;-62
2022/07/15 02:12:14;;;;;;;6.03;2.62;;;;;;;26.90;40.75;99179.66;4491649;31;34096;-64
2022/07/15 02:14:42;;;;;;;4.65;2.40;;;;;;;27.31;39.87;99176.06;4490489;31;31994;-63
2022/07/15 02:17:10;;;;;;;4.57;2.17;;;;;;;27.35;39.79;99177.28;4498548;31;34687;-62
2022/07/15 02:19:38;;;;;;;6.53;3.00;;;;;;;27.46;39.61;99178.34;4500684;31;35183;-63
2022/07/15 02:22:06;;;;;;;5.87;2.75;;;;;;;27.60;39.34;99192.69;4500621;31;34702;-61
2022/07/15 02:24:34;;;;;;;4.32;1.92;;;;;;;27.69;39.10;99204.19;4487967;31;33318;-62
2022/07/15 02:27:02;;;;;;;5.00;2.17;;;;;;;27.63;39.10;99200.47;4496517;31;34455;-62
2022/07/15 02:29:30;;;;;;;7.30;2.10;;;;;;;27.66;38.89;99234.91;4499794;31;34063;-62
2022/07/15 02:31:58;;;;;;;5.55;2.97;;;;;;;27.57;39.18;99251.72;4500212;31;34081;-64
2022/07/15 02:34:26;;;;;;;6.05;2.00;;;;;;;27.50;38.79;99269.41;4498726;31;32172;-62
2022/07/15 02:36:54;;;;;;;4.30;2.28;;;;;;;27.78;38.27;99274.25;4499702;31;33855;-62
2022/07/15 02:39:22;;;;;;;5.85;1.87;;;;;;;27.57;38.05;99295.69;4495945;31;33828;-62
2022/07/15 02:41:51;;;;;;;3.97;1.75;;;;;;;27.75;37.68;99282.94;4484882;31;33879;-62
2022/07/15 02:44:19;;;;;;;5.57;1.50;;;;;;;27.57;37.67;99292.94;4494601;31;34675;-62
2022/07/15 02:46:47;;;;;;;1.95;1.17;;;;;;;26.79;37.00;99291.13;4497704;31;33711;-61
2022/07/15 02:49:19;;;;;;;2.83;1.50;;;;;;;26.86;36.26;99282.78;4500425;31;34118;-61
2022/07/15 02:51:47;;;;;;;3.15;1.33;;;;;;;27.67;35.11;99277.78;4498897;31;33941;-62
2022/07/15 02:54:15;;;;;;;4.87;1.70;;;;;;;27.96;34.85;99292.53;4498958;31;32366;-61
2022/07/15 02:56:42;;;;;;;3.87;1.45;;;;;;;27.98;35.18;99288.47;4497859;31;35003;-62
2022/07/15 02:59:10;;;;;;;2.85;1.45;;;;;;;28.18;35.15;99287.28;4498177;31;33767;-64
2022/07/15 03:01:38;;;;;;;3.62;2.00;;;;;;;27.88;35.90;99282.75;4497004;31;35119;-63
2022/07/15 03:04:06;;;;;;;4.43;1.67;;;;;;;27.76;36.33;99281.88;4496511;31;33270;-62
2022/07/15 03:06:35;;;;;;;8.07;1.62;;;;;;;27.95;35.79;99286.22;4499176;31;34923;-62
2022/07/15 03:09:03;;;;;;;5.35;1.58;;;;;;;27.97;35.88;99284.06;4499544;31;35195;-62
2022/07/15 03:11:31;;;;;;;2.28;1.27;;;;;;;26.82;36.35;99276.09;4499437;31;34330;-62
2022/07/15 03:13:59;;;;;;;1.73;1.12;;;;;;;26.63;36.21;99278.88;4485322;31;31838;-61
2022/07/15 03:16:29;;;;;;;2.53;1.02;;;;;;;26.89;35.55;99283.16;4493777;31;33728;-62
2022/07/15 03:18:58;;;;;;;2.37;1.10;;;;;;;27.39;34.42;99282.06;4497483;31;33877;-63
2022/07/15 03:21:26;;;;;;;2.10;1.10;;;;;;;27.60;34.17;99294.41;4499378;31;33989;-63
2022/07/15 03:23:54;;;;;;;2.42;1.10;;;;;;;27.75;34.12;99307.69;4498350;31;33406;-63
2022/07/15 03:26:21;;;;;;;2.55;1.10;;;;;;;27.66;34.24;99298.13;4498688;31;33596;-63
2022/07/15 03:28:49;;;;;;;2.50;1.25;;;;;;;27.62;34.27;99289.50;4500119;31;33769;-62
2022/07/15 03:31:17;;;;;;;2.78;1.35;;;;;;;27.83;34.21;99290.88;4495759;31;34247;-63
2022/07/15 03:33:45;;;;;;;2.55;1.20;;;;;;;28.03;33.84;99293.28;4490769;31;33632;-62
2022/07/15 03:36:23;;;;;;;2.95;1.10;;;;;;;27.90;34.15;99285.25;4498355;31;35063;-63
2022/07/15 03:38:51;;;;;;;3.08;1.30;;;;;;;28.02;34.18;99281.41;4499422;31;34063;-63
2022/07/15 03:41:20;;;;;;;2.75;1.50;;;;;;;28.21;33.70;99281.28;4499820;31;35218;-62
2022/07/15 03:43:48;;;;;;;3.87;1.58;;;;;;;27.96;34.22;99290.66;4498153;31;34526;-63
2022/07/15 03:46:16;;;;;;;1.80;1.17;;;;;;;28.11;34.09;99287.41;4498455;31;33618;-62
2022/07/15 03:48:44;;;;;;;2.42;1.37;;;;;;;28.15;34.15;99291.34;4482741;31;32456;-62
2022/07/15 03:51:13;;;;;;;4.80;1.40;;;;;;;27.97;34.63;99295.06;4484296;31;35160;-63
2022/07/15 03:53:41;;;;;;;2.08;1.05;;;;;;;27.87;34.76;99295.66;4499053;31;33690;-63
2022/07/15 03:56:09;;;;;;;3.20;1.17;;;;;;;28.02;34.49;99305.34;4498844;31;33871;-63
2022/07/15 03:58:38;;;;;;;3.50;1.17;;;;;;;28.02;34.74;99332.84;4499080;31;33987;-65
2022/07/15 04:01:06;;;;;;;2.42;1.20;;;;;;;27.52;35.46;99331.31;4498912;31;35231;-63
2022/07/15 04:03:34;;;;;;;2.08;1.33;;;;;;;27.06;36.49;99338.31;4493010;31;34940;-63
2022/07/15 04:06:02;;;;;;;3.60;1.30;;;;;;;27.16;36.24;99327.63;4491954;31;34405;-64
2022/07/15 04:08:30;;;;;;;3.47;1.30;;;;;;;27.03;36.33;99315.94;4496690;31;34107;-62
2022/07/15 04:10:58;;;;;;;3.35;1.30;;;;;;;27.15;36.05;99322.34;4499465;31;33835;-63
2022/07/15 04:13:25;;;;;;;3.90;1.40;;;;;;;27.12;36.17;99314.53;4498403;31;34427;-64
2022/07/15 04:15:53;;;;;;;2.20;1.00;;;;;;;27.21;36.16;99313.19;4499244;31;34135;-64
2022/07/15 04:18:22;;;;;;;2.78;1.30;;;;;;;26.63;37.23;99317.28;4498934;31;34981;-62
2022/07/15 04:20:50;;;;;;;3.28;0.98;;;;;;;26.92;36.73;99318.41;4492370;31;35053;-63
2022/07/15 04:23:18;;;;;;;2.78;1.42;;;;;;;26.08;38.49;99317.22;4498225;31;31776;-64
2022/07/15 04:25:46;;;;;;;2.15;1.15;;;;;;;26.29;38.05;99326.09;4498149;31;33959;-63
2022/07/15 04:28:15;;;;;;;2.90;1.15;;;;;;;26.44;37.81;99335.63;4501220;31;33950;-65
2022/07/15 04:30:42;;;;;;;5.28;1.27;;;;;;;26.37;38.08;99334.88;4501100;31;33909;-62
2022/07/15 04:33:11;;;;;;;2.03;1.05;;;;;;;26.53;37.93;99330.72;4497549;31;34760;-63
2022/07/15 04:35:39;;;;;;;5.10;1.23;;;;;;;25.69;39.61;99343.06;4483822;31;33856;-63
2022/07/15 04:38:07;;;;;;;7.20;1.30;;;;;;;24.87;41.79;99340.13;4491951;31;34067;-62
2022/07/15 04:40:39;;;;;;;4.20;1.30;;;;;;;25.36;40.92;99346.88;4498610;31;34073;-64
2022/07/15 04:43:11;;;;;;;4.15;1.62;;;;;;;25.14;41.61;99343.63;4498199;31;33473;-62
2022/07/15 04:45:41;;;;;;;4.35;1.30;;;;;;;24.85;42.45;99345.00;4499381;31;33994;-63
2022/07/15 04:50:56;;;;;;;4.68;1.35;;;;;;;24.54;43.46;99351.22;4497946;31;34211;-61
2022/07/15 04:53:24;;;;;;;4.60;1.50;;;;;;;24.51;43.90;99340.69;4501070;31;34397;-61
2022/07/15 04:55:53;;;;;;;3.55;1.65;;;;;;;24.76;43.64;99338.94;4500790;31;34017;-61
2022/07/15 04:58:20;;;;;;;2.78;1.37;;;;;;;24.39;44.60;99335.84;4499460;31;33792;-61
2022/07/15 05:00:49;;;;;;;4.70;1.45;;;;;;;24.33;45.02;99328.53;4496197;31;34861;-61
2022/07/15 05:03:17;;;;;;;3.37;1.65;;;;;;;24.79;43.86;99337.66;4500916;31;33913;-61
2022/07/15 05:05:45;;;;;;;3.62;1.90;;;;;;;24.09;45.83;99349.16;4497799;31;33684;-64
2022/07/15 05:08:13;;;;;;;3.85;1.87;;;;;;;23.96;46.32;99331.94;4497114;31;33808;-63
2022/07/15 05:10:41;;;;;;;4.22;1.70;;;;;;;23.69;47.27;99340.13;4498826;31;34341;-63
2022/07/15 05:13:09;;;;;;;4.45;2.00;;;;;;;23.91;46.75;99335.28;4485108;31;33670;-62
2022/07/15 05:15:37;;;;;;;4.37;1.70;;;;;;;24.16;46.37;99346.41;4500400;31;33938;-62
2022/07/15 05:18:06;;;;;;;3.53;1.80;;;;;;;24.09;46.56;99349.16;4498675;31;33968;-63
2022/07/15 05:20:34;;;;;;;4.95;1.65;;;;;;;23.86;47.30;99354.22;4492526;31;34801;-64
2022/07/15 05:23:02;;;;;;;5.87;2.12;;;;;;;23.81;47.80;99373.97;4483316;31;33098;-64
2022/07/15 05:25:33;;;;;;;6.95;2.20;;;;;;;23.56;48.99;99381.06;4494123;31;34091;-62
2022/07/15 05:28:02;;;;;;;5.35;2.17;;;;;;;23.37;49.79;99371.78;4499080;31;35812;-63
2022/07/15 05:30:30;;;;;;;4.93;2.17;;;;;;;23.77;49.05;99358.22;4499851;31;34225;-64
2022/07/15 05:32:59;;;;;;;6.28;2.10;;;;;;;23.62;49.58;99370.13;4500395;31;35283;-64
2022/07/15 05:35:27;;;;;;;5.57;2.50;;;;;;;22.75;52.55;99370.91;4495279;31;34041;-63
2022/07/15 05:37:54;;;;;;;7.62;2.12;;;;;;;22.65;53.02;99381.34;4495663;31;35126;-62
2022/07/15 05:40:22;;;;;;;4.50;2.25;;;;;;;22.79;52.82;99374.91;4499980;31;35115;-64
2022/07/15 05:42:50;;;;;;;5.05;2.10;;;;;;;23.27;51.53;99383.09;4499496;31;35405;-62
2022/07/15 05:45:18;;;;;;;4.40;2.30;;;;;;;23.47;51.05;99394.94;4500293;31;34990;-62
2022/07/15 05:47:50;;;;;;;3.85;2.08;;;;;;;23.22;51.87;99394.62;4497629;31;33961;-63
2022/07/15 05:50:19;;;;;;;7.37;1.98;;;;;;;23.55;50.97;99391.16;4498889;31;35109;-63
2022/07/15 05:52:47;;;;;;;3.70;2.03;;;;;;;23.29;51.67;99385.63;4489094;31;33118;-63
2022/07/15 05:55:16;;;;;;;7.65;2.47;;;;;;;22.67;53.44;99391.03;4497174;31;33764;-62
2022/07/15 05:57:44;;;;;;;5.05;2.20;;;;;;;23.22;51.96;99399.25;4492323;31;32447;-63
2022/07/15 06:00:13;;;;;;;4.68;2.33;;;;;;;22.63;53.66;99417.03;4496743;31;35201;-62
2022/07/15 06:02:41;;;;;;;4.62;2.08;;;;;;;22.49;54.28;99426.97;4498137;31;33297;-62
2022/07/15 06:05:10;;;;;;;4.55;2.20;;;;;;;22.39;54.94;99433.84;4497535;31;33766;-61
2022/07/15 06:07:39;;;;;;;3.58;1.98;;;;;;;21.87;56.58;99433.16;4494700;31;32732;-62
2022/07/15 06:10:08;;;;;;;4.05;2.08;;;;;;;21.65;57.63;99432.31;4498052;31;33969;-61
2022/07/15 06:12:36;;;;;;;7.62;2.45;;;;;;;21.90;57.05;99435.50;4499232;31;33382;-61
2022/07/15 06:15:05;;;;;;;5.80;2.47;;;;;;;22.08;56.65;99435.00;4499953;31;33596;-63
2022/07/15 06:17:33;;;;;;;4.80;2.58;;;;;;;21.84;57.37;99418.06;4497931;31;34256;-61
2022/07/15 06:20:01;;;;;;;3.20;1.85;;;;;;;21.86;57.14;99436.91;4485771;31;34147;-61
2022/07/15 06:22:38;;;;;;;5.00;2.17;;;;;;;21.89;56.96;99431.06;4499473;31;31874;-61
2022/07/15 06:25:07;;;;;;;4.35;2.30;;;;;;;21.60;57.64;99434.78;4498259;31;32786;-61
2022/07/15 06:27:35;;;;;;;4.00;2.00;;;;;;;22.65;54.66;99435.91;4497139;31;33955;-64
2022/07/15 06:30:03;;;;;;;5.57;2.12;;;;;;;22.79;53.97;99454.88;4500443;31;34151;-61
2022/07/15 06:32:31;;;;;;;3.45;1.83;;;;;;;21.97;56.07;99449.19;4490154;31;32930;-62
2022/07/15 06:34:59;;;;;;;3.47;1.75;;;;;;;22.19;55.52;99444.59;4498283;31;33813;-63
2022/07/15 06:37:27;;;;;;;3.12;1.87;;;;;;;22.32;55.21;99436.53;4485415;31;34048;-62
2022/07/15 06:39:55;;;;;;;3.62;1.92;;;;;;;22.69;54.19;99440.75;4500244;31;34039;-62
2022/07/15 06:42:23;;;;;;;3.80;1.95;;;;;;;22.68;54.47;99470.97;4497014;31;33541;-61
2022/07/15 06:44:56;;;;;;;3.30;1.70;;;;;;;22.72;54.16;99480.44;4499219;31;32564;-64
2022/07/15 06:47:23;;;;;;;5.45;2.22;;;;;;;22.51;55.06;99486.78;4495923;31;34035;-62
2022/07/15 06:49:51;;;;;;;4.20;2.20;;;;;;;22.64;54.71;99510.59;4496508;31;34098;-64
2022/07/15 06:52:19;;;;;;;3.83;2.08;;;;;;;22.82;54.20;99510.91;4500401;31;34283;-63
2022/07/15 06:54:47;;;;;;;4.78;1.98;;;;;;;22.29;55.73;99527.72;4498418;31;33399;-61
2022/07/15 06:57:16;;;;;;;5.30;2.30;;;;;;;22.64;55.08;99546.06;4496228;31;34058;-63
2022/07/15 06:59:47;;;;;;;3.90;2.00;;;;;;;22.79;54.62;99563.16;4498987;31;34164;-63
2022/07/15 07:02:14;;;;;;;5.87;2.40;;;;;;;23.10;53.91;99572.88;4495701;31;33385;-63
2022/07/15 07:04:42;;;;;;;7.20;2.75;;;;;;;23.08;54.18;99566.75;4492641;31;33906;-63
2022/07/15 07:07:12;;;;;;;5.22;2.53;;;;;;;22.42;55.78;99573.34;4499043;31;32852;-61
2022/07/15 07:09:40;;;;;;;4.53;2.30;;;;;;;22.41;56.20;99577.13;4497545;31;32890;-61
2022/07/15 07:12:08;;;;;;;4.20;2.20;;;;;;;22.53;55.68;99589.16;4494851;31;33656;-63
2022/07/15 07:14:36;;;;;;;7.35;2.40;;;;;;;23.08;53.66;99567.63;4496698;31;35011;-62
2022/07/15 07:17:03;;;;;;;4.03;2.35;;;;;;;23.01;54.17;99566.72;4493901;31;34179;-62
2022/07/15 07:19:31;;;;;;;5.25;2.37;;;;;;;22.47;55.67;99567.28;4493399;31;34370;-63
2022/07/15 07:21:59;;;;;;;6.72;2.72;;;;;;;22.72;56.27;99551.34;4485352;31;33402;-64
2022/07/15 07:24:26;;;;;;;4.72;2.53;;;;;;;22.63;56.89;99561.59;4497761;31;34062;-64
2022/07/15 07:26:54;;;;;;;5.22;2.65;;;;;;;23.04;56.50;99579.13;4497281;31;32642;-62
2022/07/15 07:29:22;;;;;;;5.57;2.62;;;;;;;23.49;55.25;99578.53;4499323;31;34420;-64
2022/07/15 07:31:50;;;;;;;6.93;2.60;;;;;;;23.61;55.18;99583.44;4497349;31;34797;-62
2022/07/15 07:34:18;;;;;;;5.62;2.80;;;;;;;24.12;53.66;99589.34;4498110;31;33896;-62
2022/07/15 07:36:46;;;;;;;4.47;2.90;;;;;;;23.54;55.27;99577.94;4494911;31;35549;-63
2022/07/15 07:39:14;;;;;;;5.22;2.75;;;;;;;23.73;54.94;99573.66;4498317;31;33936;-61
2022/07/15 07:41:42;;;;;;;3.37;2.35;;;;;;;23.28;56.30;99564.16;4498883;31;33813;-64
2022/07/15 07:44:10;;;;;;;4.45;2.65;;;;;;;23.43;55.23;99568.41;4487889;31;32335;-62
2022/07/15 07:46:37;;;;;;;5.60;2.47;;;;;;;23.85;54.53;99573.87;4496376;31;34005;-63
2022/07/15 07:49:05;;;;;;;6.00;2.70;;;;;;;24.03;53.89;99595.19;4490550;31;32754;-61
2022/07/15 07:51:53;;;;;;;6.03;2.90;;;;;;;24.09;53.61;99587.00;4485186;31;33414;-62
2022/07/15 07:54:21;;;;;;;5.30;3.00;;;;;;;23.78;53.85;99575.75;4492456;31;33660;-63
2022/07/15 07:56:49;;;;;;;5.07;2.90;;;;;;;23.57;53.92;99574.81;4501629;31;34136;-62
2022/07/15 07:59:17;;;;;;;4.50;3.00;;;;;;;24.05;53.62;99580.28;4497990;31;35231;-61
2022/07/15 08:01:45;;;;;;;5.07;3.25;;;;;;;24.00;54.06;99560.06;4495425;31;34739;-62
2022/07/15 08:04:14;;;;;;;5.43;3.28;;;;;;;24.27;53.72;99569.16;4482137;31;32310;-61
2022/07/15 08:06:41;;;;;;;6.35;3.20;;;;;;;24.49;53.53;99567.13;4484592;31;32778;-64
2022/07/15 08:09:09;;;;;;;5.43;3.12;;;;;;;23.99;54.09;99575.63;4495873;31;34130;-61
2022/07/15 08:11:36;;;;;;;4.87;2.97;;;;;;;24.20;53.97;99588.28;4493404;31;32214;-62
2022/07/15 08:14:04;;;;;;;5.25;3.22;;;;;;;23.52;55.93;99604.63;4495051;31;34099;-62
2022/07/15 08:16:33;;;;;;;6.07;3.47;;;;;;;24.11;54.82;99612.28;4497421;31;33816;-63
2022/07/15 08:19:01;;;;;;;5.62;3.62;;;;;;;23.96;55.59;99616.22;4500797;31;33504;-62
2022/07/15 08:21:29;;;;;;;5.78;3.35;;;;;;;24.18;54.84;99615.84;4500469;31;33223;-61
2022/07/15 08:23:57;;;;;;;6.50;3.92;;;;;;;24.32;54.08;99621.34;4495636;31;33853;-62
2022/07/15 08:26:24;;;;;;;5.95;3.90;;;;;;;24.47;54.17;99624.78;4496664;31;33744;-62
2022/07/15 08:28:52;;;;;;;5.53;3.75;;;;;;;24.69;53.83;99617.25;4499611;31;33844;-64
2022/07/15 08:31:36;;;;;;;6.50;3.60;;;;;;;24.74;53.76;99625.66;4501256;31;34494;-61
2022/07/15 08:34:04;;;;;;;6.75;3.70;;;;;;;24.91;53.50;99622.50;4484204;31;33514;-63
2022/07/15 08:36:32;;;;;;;7.53;3.75;;;;;;;25.01;53.35;99628.41;4488482;31;32804;-63
2022/07/15 08:39:00;;;;;;;8.13;4.40;;;;;;;25.14;53.21;99624.84;4484141;31;33851;-62
2022/07/15 08:41:27;;;;;;;8.57;4.37;;;;;;;25.15;53.57;99619.16;4483268;31;32125;-62
2022/07/15 08:43:55;;;;;;;5.50;3.72;;;;;;;25.26;53.24;99613.00;4494998;31;35028;-64
2022/07/15 08:46:26;;;;;;;9.43;3.70;;;;;;;25.32;52.61;99609.41;4486296;31;33928;-61
2022/07/15 08:48:58;;;;;;;5.87;3.90;;;;;;;25.35;51.99;99612.78;4492038;31;33601;-62
2022/07/15 08:51:26;;;;;;;5.78;3.90;;;;;;;25.42;51.61;99636.38;4490609;31;34417;-64
2022/07/15 08:53:56;;;;;;;5.82;3.55;;;;;;;25.29;52.41;99634.50;4485978;31;33849;-64
2022/07/15 08:56:24;;;;;;;7.32;4.70;;;;;;;25.28;52.41;99643.78;4498155;31;35289;-62
2022/07/15 08:58:52;;;;;;;7.10;4.12;;;;;;;25.24;52.78;99639.78;4491342;31;34170;-62
2022/07/15 09:01:28;;;;;;;6.95;3.70;;;;;;;25.35;52.35;99645.66;4499204;31;33801;-61
2022/07/15 09:03:56;;;;;;;8.35;4.10;;;;;;;25.41;52.28;99637.44;4469562;31;32336;-64
2022/07/15 09:06:38;;;;;;;6.55;4.18;;;;;;;25.14;52.88;99644.88;4479637;31;32860;-63
2022/07/15 09:09:43;;;;;;;5.95;3.80;;;;;;;25.26;52.15;99629.44;4488272;31;35349;-62
2022/07/15 09:12:11;;;;;;;6.47;4.57;;;;;;;25.24;52.54;99653.50;4480413;31;31917;-64
2022/07/15 09:14:44;;;;;;;6.47;4.30;;;;;;;25.41;52.55;99666.75;4493740;31;34728;-62
2022/07/15 09:17:13;;;;;;;6.03;3.70;;;;;;;25.34;52.72;99650.31;4482648;31;33532;-61
2022/07/15 09:20:05;;;;;;;9.07;4.12;;;;;;;25.38;52.41;99637.88;4479879;31;32868;-64
2022/07/15 09:22:55;;;;;;;8.32;4.80;;;;;;;25.24;53.09;99620.63;4484439;31;34037;-62
2022/07/15 09:25:24;;;;;;;7.80;4.37;;;;;;;25.33;53.91;99634.94;4491132;31;33749;-64
2022/07/15 09:27:52;;;;;;;8.57;4.35;;;;;;;25.13;52.63;99637.69;4498758;31;33041;-62
2022/07/15 09:33:38;;;;;;;7.95;4.12;;;;;;;25.30;53.08;99663.59;4491910;31;34734;-63
2022/07/15 09:36:15;;;;;;;5.93;4.25;;;;;;;25.33;53.04;99663.16;4497961;31;34023;-61
2022/07/15 09:38:57;;;;;;;9.25;4.50;;;;;;;25.48;52.44;99675.78;4483515;31;33771;-62
2022/07/15 09:41:26;;;;;;;7.37;4.30;;;;;;;25.36;52.39;99670.12;4495041;31;33120;-62
2022/07/15 09:43:54;;;;;;;6.53;3.85;;;;;;;25.18;51.52;99673.50;4493147;31;33761;-64
2022/07/15 09:46:24;;;;;;;7.25;4.60;;;;;;;25.29;51.98;99677.50;4498329;31;34328;-62
2022/07/15 09:48:52;;;;;;;5.70;4.10;;;;;;;25.15;53.02;99690.34;4495577;31;33222;-63
2022/07/15 09:51:21;;;;;;;7.07;3.90;;;;;;;25.25;52.49;99679.81;4486782;31;32465;-61
2022/07/15 09:53:50;;;;;;;5.97;3.90;;;;;;;25.48;51.47;99678.53;4491715;31;31627;-62
2022/07/15 09:56:22;;;;;;;6.87;4.25;;;;;;;25.58;51.36;99680.81;4487552;31;33065;-62
2022/07/15 09:58:50;;;;;;;12.82;3.97;;;;;;;25.41;51.87;99670.31;4494239;31;33929;-62
2022/07/15 10:01:18;;;;;;;6.78;4.00;;;;;;;25.08;51.19;99657.47;4490846;31;34208;-63
2022/07/15 10:03:49;;;;;;;6.85;3.47;;;;;;;25.32;50.76;99649.66;4490622;31;33503;-61
2022/07/15 10:06:16;;;;;;;7.65;3.62;;;;;;;25.52;50.34;99627.72;4489100;31;32504;-64
2022/07/15 10:08:47;;;;;;;8.25;3.87;;;;;;;25.59;50.18;99592.94;4494688;31;33245;-64
2022/07/15 10:11:15;;;;;;;5.80;4.20;;;;;;;25.81;50.83;99574.31;4487575;31;32951;-62
2022/07/15 10:14:08;;;;;;;5.55;3.90;;;;;;;25.94;51.11;99587.09;4496397;31;33716;-64
2022/07/15 10:16:48;;;;;;;6.50;3.97;;;;;;;26.10;48.67;99615.91;4487764;31;35301;-64
2022/07/15 10:19:35;;;;;;;8.57;4.18;;;;;;;26.08;48.53;99627.13;4492821;31;32431;-62
2022/07/15 10:22:13;;;;;;;9.32;4.00;;;;;;;25.74;49.31;99614.56;4488786;31;33939;-64
2022/07/15 10:24:49;;;;;;;7.07;3.87;;;;;;;25.67;48.52;99611.03;4475297;31;33449;-63
2022/07/15 10:27:48;;;;;;;5.30;3.15;;;;;;;25.87;49.50;99589.03;4477464;31;32487;-62
2022/07/15 10:30:19;;;;;;;5.95;3.03;;;;;;;25.13;46.69;99582.06;4491167;31;35650;-63
2022/07/15 10:33:02;;;;;;;5.20;2.62;;;;;;;24.97;44.20;99572.38;4490506;31;32552;-64
2022/07/15 10:35:52;;;;;;;3.62;2.08;;;;;;;24.50;42.46;99566.94;4488572;31;34836;-63
2022/07/15 10:38:23;;;;;;;4.62;2.60;;;;;;;25.52;41.19;99575.66;4494641;31;33859;-61
2022/07/15 10:40:58;;;;;;;7.20;2.70;;;;;;;25.62;40.79;99586.16;4493953;31;34802;-64
2022/07/15 10:43:49;;;;;;;6.72;2.62;;;;;;;25.91;38.60;99590.31;4492472;31;32908;-61
2022/07/15 10:46:16;;;;;;;4.60;2.00;;;;;;;25.73;39.40;99602.78;4488782;31;32296;-64
2022/07/15 10:48:51;;;;;;;4.78;2.45;;;;;;;24.81;38.32;99609.22;4497056;31;34094;-61
2022/07/15 10:51:37;;;;;;;6.30;2.30;;;;;;;25.28;37.20;99610.06;4491482;31;33845;-64
2022/07/15 10:54:31;;;;;;;8.02;2.28;;;;;;;25.38;36.48;99620.59;4478426;31;31895;-61
2022/07/15 10:57:00;;;;;;;5.50;2.00;;;;;;;25.39;35.14;99611.31;4488982;31;33903;-62
2022/07/15 10:59:36;;;;;;;6.97;2.62;;;;;;;25.42;35.14;99616.34;4488727;31;34746;-62
2022/07/15 11:02:04;;;;;;;5.43;2.17;;;;;;;25.75;34.97;99611.63;4490806;31;33943;-61
2022/07/15 11:04:33;;;;;;;7.75;2.70;;;;;;;25.65;35.08;99613.13;4487928;31;33954;-64
2022/07/15 11:07:04;;;;;;;7.57;2.08;;;;;;;25.62;33.73;99613.56;4496981;31;34716;-63
2022/07/15 11:09:47;;;;;;;6.60;2.47;;;;;;;25.84;32.98;99614.97;4491780;31;35133;-62
2022/07/15 11:12:17;;;;;;;8.82;2.08;;;;;;;25.96;32.89;99612.41;4495476;31;32820;-63
2022/07/15 11:14:48;;;;;;;3.70;1.77;;;;;;;25.75;32.53;99605.31;4481979;31;32258;-63
2022/07/15 11:17:18;;;;;;;3.80;2.00;;;;;;;25.17;32.69;99614.31;4480373;31;33218;-62
2022/07/15 11:19:49;;;;;;;4.65;2.03;;;;;;;25.72;31.25;99609.31;4488704;31;34508;-64
2022/07/15 11:22:18;;;;;;;4.93;2.45;;;;;;;26.14;31.34;99603.47;4494087;31;34221;-63
2022/07/15 11:24:46;;;;;;;4.85;1.95;;;;;;;25.87;31.12;99610.97;4497696;31;34343;-63
2022/07/15 11:27:14;;;;;;;4.12;2.03;;;;;;;26.05;32.01;99604.78;4495793;31;32087;-64
2022/07/15 11:29:43;;;;;;;8.48;2.33;;;;;;;26.00;31.65;99602.69;4490157;31;33751;-62
2022/07/15 11:32:12;;;;;;;3.85;1.80;;;;;;;26.02;31.05;99597.84;4481586;31;32736;-62
2022/07/15 11:34:42;;;;;;;4.72;1.90;;;;;;;26.45;30.46;99600.75;4481185;31;32537;-63
2022/07/15 11:37:12;;;;;;;4.10;1.83;;;;;;;26.97;30.50;99602.47;4493327;31;33551;-63
2022/07/15 11:39:40;;;;;;;6.43;2.08;;;;;;;26.32;30.22;99599.97;4489982;31;34127;-62
2022/07/15 11:45:07;;;;;;;4.05;2.20;;;;;;;26.61;28.28;99591.16;4479564;31;35140;-62
2022/07/15 11:47:35;;;;;;;5.68;2.40;;;;;;;26.90;28.91;99597.03;4481821;31;31898;-63
2022/07/15 11:50:05;;;;;;;5.97;2.35;;;;;;;27.08;28.68;99588.84;4481103;31;33423;-62
2022/07/15 11:52:33;;;;;;;5.97;2.22;;;;;;;26.81;29.70;99599.25;4490395;31;35753;-62
2022/07/15 11:55:05;;;;;;;6.00;2.58;;;;;;;26.28;29.11;99593.25;4491722;31;34500;-62
2022/07/15 11:57:34;;;;;;;5.30;2.35;;;;;;;26.30;29.19;99604.87;4479112;31;32048;-65